Terminal Aerodrome Forecast
Issued by NWS Bismarck, ND

Home | Current Version | Previous Version | Text Only | Print | Product List | Glossary On
Versions: 1 2 3 4 5 6 7 8 9 10 11 12 13 14 15 16
000
FTUS43 KBIS 220538
TAFBIS
TAF
KBIS 220538Z 2206/2306 VRB02KT P6SM FEW035 BKN200
     FM220800 36004KT 1 1/2SM BR OVC050
     FM221000 36007KT 3/4SM BR OVC010
     FM221300 36011KT 2SM -RA BR OVC008
     FM222000 01011KT P6SM VCSH OVC011
     FM222300 01011KT P6SM OVC015=

USA.gov is the U.S. government's official web portal to all federal, state and local government web resources and services.